sensor_id;sensor_type;location;lat;lon;timestamp;P1;durP1;ratioP1;P2;durP2;ratioP2
18433;SDS011;9344;52.294;13.626;2022-07-29T00:01:32;2.85;;;1.45;;
18433;SDS011;9344;52.294;13.626;2022-07-29T00:03:59;2.72;;;1.30;;
18433;SDS011;9344;52.294;13.626;2022-07-29T00:06:25;3.42;;;1.50;;
18433;SDS011;9344;52.294;13.626;2022-07-29T00:08:52;2.28;;;1.30;;
18433;SDS011;9344;52.294;13.626;2022-07-29T00:11:18;4.68;;;1.63;;
18433;SDS011;9344;52.294;13.626;2022-07-29T00:13:45;3.00;;;1.50;;
18433;SDS011;9344;52.294;13.626;2022-07-29T00:16:13;3.00;;;1.40;;
18433;SDS011;9344;52.294;13.626;2022-07-29T00:18:39;5.22;;;1.85;;
18433;SDS011;9344;52.294;13.626;2022-07-29T00:21:06;5.15;;;1.58;;
18433;SDS011;9344;52.294;13.626;2022-07-29T00:23:32;2.65;;;1.65;;
18433;SDS011;9344;52.294;13.626;2022-07-29T00:25:59;3.92;;;1.67;;
18433;SDS011;9344;52.294;13.626;2022-07-29T00:28:25;3.92;;;1.48;;
18433;SDS011;9344;52.294;13.626;2022-07-29T00:30:52;3.85;;;2.00;;
18433;SDS011;9344;52.294;13.626;2022-07-29T00:33:20;2.70;;;1.52;;
18433;SDS011;9344;52.294;13.626;2022-07-29T00:35:48;4.00;;;1.73;;
18433;SDS011;9344;52.294;13.626;2022-07-29T00:38:15;3.58;;;1.70;;
18433;SDS011;9344;52.294;13.626;2022-07-29T00:40:42;6.45;;;1.77;;
18433;SDS011;9344;52.294;13.626;2022-07-29T00:43:10;6.05;;;1.70;;
18433;SDS011;9344;52.294;13.626;2022-07-29T00:45:38;3.03;;;1.35;;
18433;SDS011;9344;52.294;13.626;2022-07-29T00:48:05;3.67;;;1.80;;
18433;SDS011;9344;52.294;13.626;2022-07-29T00:50:35;4.60;;;1.67;;
18433;SDS011;9344;52.294;13.626;2022-07-29T00:53:02;3.10;;;1.70;;
18433;SDS011;9344;52.294;13.626;2022-07-29T00:55:29;3.22;;;1.73;;
18433;SDS011;9344;52.294;13.626;2022-07-29T00:57:56;2.97;;;1.60;;
18433;SDS011;9344;52.294;13.626;2022-07-29T01:00:25;4.35;;;1.50;;
18433;SDS011;9344;52.294;13.626;2022-07-29T01:02:53;3.20;;;1.77;;
18433;SDS011;9344;52.294;13.626;2022-07-29T01:05:20;5.15;;;1.70;;
18433;SDS011;9344;52.294;13.626;2022-07-29T01:07:51;7.38;;;1.70;;
18433;SDS011;9344;52.294;13.626;2022-07-29T01:10:19;3.15;;;1.40;;
18433;SDS011;9344;52.294;13.626;2022-07-29T01:12:48;3.10;;;1.70;;
18433;SDS011;9344;52.294;13.626;2022-07-29T01:15:17;5.32;;;1.80;;
18433;SDS011;9344;52.294;13.626;2022-07-29T01:17:44;4.75;;;1.80;;
18433;SDS011;9344;52.294;13.626;2022-07-29T01:20:17;4.25;;;1.98;;
18433;SDS011;9344;52.294;13.626;2022-07-29T01:23:05;2.72;;;1.40;;
18433;SDS011;9344;52.294;13.626;2022-07-29T01:28:41;2.38;;;1.60;;
18433;SDS011;9344;52.294;13.626;2022-07-29T01:31:27;3.08;;;1.40;;
18433;SDS011;9344;52.294;13.626;2022-07-29T01:33:58;6.28;;;1.50;;
18433;SDS011;9344;52.294;13.626;2022-07-29T01:36:31;2.33;;;1.40;;
18433;SDS011;9344;52.294;13.626;2022-07-29T01:39:02;2.60;;;1.60;;
18433;SDS011;9344;52.294;13.626;2022-07-29T01:41:35;4.15;;;1.77;;
18433;SDS011;9344;52.294;13.626;2022-07-29T01:44:10;2.47;;;1.35;;
18433;SDS011;9344;52.294;13.626;2022-07-29T01:46:40;3.55;;;1.58;;
18433;SDS011;9344;52.294;13.626;2022-07-29T01:49:16;2.85;;;1.60;;
18433;SDS011;9344;52.294;13.626;2022-07-29T01:51:47;6.35;;;1.73;;
18433;SDS011;9344;52.294;13.626;2022-07-29T01:54:18;1.95;;;1.20;;
18433;SDS011;9344;52.294;13.626;2022-07-29T01:56:51;4.53;;;1.67;;
18433;SDS011;9344;52.294;13.626;2022-07-29T01:59:22;4.70;;;1.50;;
18433;SDS011;9344;52.294;13.626;2022-07-29T02:01:50;3.50;;;1.67;;
18433;SDS011;9344;52.294;13.626;2022-07-29T02:04:20;4.22;;;1.58;;
18433;SDS011;9344;52.294;13.626;2022-07-29T02:06:48;2.88;;;1.45;;
18433;SDS011;9344;52.294;13.626;2022-07-29T02:09:16;3.42;;;1.80;;
18433;SDS011;9344;52.294;13.626;2022-07-29T02:11:47;3.50;;;1.73;;
18433;SDS011;9344;52.294;13.626;2022-07-29T02:14:17;4.80;;;1.80;;
18433;SDS011;9344;52.294;13.626;2022-07-29T02:16:45;3.10;;;1.60;;
18433;SDS011;9344;52.294;13.626;2022-07-29T02:19:14;1.85;;;1.33;;
18433;SDS011;9344;52.294;13.626;2022-07-29T02:21:43;3.85;;;1.90;;
18433;SDS011;9344;52.294;13.626;2022-07-29T02:24:11;4.65;;;1.83;;
18433;SDS011;9344;52.294;13.626;2022-07-29T02:26:39;4.25;;;1.70;;
18433;SDS011;9344;52.294;13.626;2022-07-29T02:29:07;3.00;;;1.85;;
18433;SDS011;9344;52.294;13.626;2022-07-29T02:31:35;3.15;;;1.60;;
18433;SDS011;9344;52.294;13.626;2022-07-29T02:34:05;4.80;;;1.85;;
18433;SDS011;9344;52.294;13.626;2022-07-29T02:36:34;8.40;;;1.83;;
18433;SDS011;9344;52.294;13.626;2022-07-29T02:39:02;2.95;;;1.77;;
18433;SDS011;9344;52.294;13.626;2022-07-29T02:41:30;3.65;;;1.60;;
18433;SDS011;9344;52.294;13.626;2022-07-29T02:44:02;3.20;;;1.80;;
18433;SDS011;9344;52.294;13.626;2022-07-29T02:46:33;4.38;;;1.90;;
18433;SDS011;9344;52.294;13.626;2022-07-29T02:49:02;2.83;;;1.40;;
18433;SDS011;9344;52.294;13.626;2022-07-29T02:51:37;2.88;;;1.60;;
18433;SDS011;9344;52.294;13.626;2022-07-29T02:54:08;3.55;;;1.52;;
18433;SDS011;9344;52.294;13.626;2022-07-29T02:56:40;6.50;;;2.10;;
18433;SDS011;9344;52.294;13.626;2022-07-29T02:59:10;2.63;;;1.60;;
18433;SDS011;9344;52.294;13.626;2022-07-29T03:01:40;2.97;;;1.70;;
18433;SDS011;9344;52.294;13.626;2022-07-29T03:04:10;2.85;;;1.42;;
18433;SDS011;9344;52.294;13.626;2022-07-29T03:06:38;3.03;;;1.75;;
18433;SDS011;9344;52.294;13.626;2022-07-29T03:09:07;2.28;;;1.48;;
18433;SDS011;9344;52.294;13.626;2022-07-29T03:11:34;3.55;;;1.60;;
18433;SDS011;9344;52.294;13.626;2022-07-29T03:14:02;3.65;;;1.60;;
18433;SDS011;9344;52.294;13.626;2022-07-29T03:16:30;2.90;;;1.70;;
18433;SDS011;9344;52.294;13.626;2022-07-29T03:18:56;3.92;;;1.80;;
18433;SDS011;9344;52.294;13.626;2022-07-29T03:21:25;3.70;;;1.60;;
18433;SDS011;9344;52.294;13.626;2022-07-29T03:23:51;2.60;;;1.70;;
18433;SDS011;9344;52.294;13.626;2022-07-29T03:26:18;5.70;;;1.90;;
18433;SDS011;9344;52.294;13.626;2022-07-29T03:28:45;8.00;;;2.00;;
18433;SDS011;9344;52.294;13.626;2022-07-29T03:31:12;2.55;;;1.52;;
18433;SDS011;9344;52.294;13.626;2022-07-29T03:33:38;4.20;;;1.60;;
18433;SDS011;9344;52.294;13.626;2022-07-29T03:36:05;3.63;;;1.60;;
18433;SDS011;9344;52.294;13.626;2022-07-29T03:38:33;3.90;;;1.75;;
18433;SDS011;9344;52.294;13.626;2022-07-29T03:41:03;2.83;;;1.63;;
18433;SDS011;9344;52.294;13.626;2022-07-29T03:43:32;4.10;;;1.48;;
18433;SDS011;9344;52.294;13.626;2022-07-29T03:46:02;3.08;;;1.60;;
18433;SDS011;9344;52.294;13.626;2022-07-29T03:48:33;3.28;;;1.55;;
18433;SDS011;9344;52.294;13.626;2022-07-29T03:51:03;4.95;;;1.58;;
18433;SDS011;9344;52.294;13.626;2022-07-29T03:53:29;4.25;;;1.70;;
18433;SDS011;9344;52.294;13.626;2022-07-29T03:55:58;3.85;;;1.80;;
18433;SDS011;9344;52.294;13.626;2022-07-29T03:58:28;6.10;;;1.60;;
18433;SDS011;9344;52.294;13.626;2022-07-29T04:00:56;5.05;;;1.88;;
18433;SDS011;9344;52.294;13.626;2022-07-29T04:03:24;4.35;;;1.65;;
18433;SDS011;9344;52.294;13.626;2022-07-29T04:05:57;4.28;;;1.80;;
18433;SDS011;9344;52.294;13.626;2022-07-29T04:08:25;5.50;;;1.90;;
18433;SDS011;9344;52.294;13.626;2022-07-29T04:10:52;2.42;;;1.50;;
18433;SDS011;9344;52.294;13.626;2022-07-29T04:13:19;2.88;;;1.67;;
18433;SDS011;9344;52.294;13.626;2022-07-29T04:15:46;3.78;;;1.77;;
18433;SDS011;9344;52.294;13.626;2022-07-29T04:18:13;3.75;;;1.75;;
18433;SDS011;9344;52.294;13.626;2022-07-29T04:20:39;5.97;;;1.75;;
18433;SDS011;9344;52.294;13.626;2022-07-29T04:23:06;4.93;;;2.20;;
18433;SDS011;9344;52.294;13.626;2022-07-29T04:25:32;3.40;;;1.63;;
18433;SDS011;9344;52.294;13.626;2022-07-29T04:27:59;4.07;;;1.92;;
18433;SDS011;9344;52.294;13.626;2022-07-29T04:30:30;3.47;;;1.50;;
18433;SDS011;9344;52.294;13.626;2022-07-29T04:32:58;3.10;;;1.70;;
18433;SDS011;9344;52.294;13.626;2022-07-29T04:35:25;3.28;;;1.75;;
18433;SDS011;9344;52.294;13.626;2022-07-29T04:37:52;4.32;;;2.08;;
18433;SDS011;9344;52.294;13.626;2022-07-29T04:40:19;3.60;;;1.85;;
18433;SDS011;9344;52.294;13.626;2022-07-29T04:42:46;3.15;;;1.48;;
18433;SDS011;9344;52.294;13.626;2022-07-29T04:45:12;2.90;;;1.67;;
18433;SDS011;9344;52.294;13.626;2022-07-29T04:47:40;7.22;;;1.88;;
18433;SDS011;9344;52.294;13.626;2022-07-29T04:50:07;3.72;;;2.00;;
18433;SDS011;9344;52.294;13.626;2022-07-29T04:52:34;3.20;;;1.70;;
18433;SDS011;9344;52.294;13.626;2022-07-29T04:55:01;3.78;;;1.42;;
18433;SDS011;9344;52.294;13.626;2022-07-29T04:57:28;7.18;;;1.77;;
18433;SDS011;9344;52.294;13.626;2022-07-29T04:59:54;2.78;;;1.60;;
18433;SDS011;9344;52.294;13.626;2022-07-29T05:02:21;3.60;;;1.63;;
18433;SDS011;9344;52.294;13.626;2022-07-29T05:04:49;8.45;;;1.80;;
18433;SDS011;9344;52.294;13.626;2022-07-29T05:07:15;3.30;;;1.50;;
18433;SDS011;9344;52.294;13.626;2022-07-29T05:09:42;3.28;;;1.50;;
18433;SDS011;9344;52.294;13.626;2022-07-29T05:12:08;3.95;;;1.45;;
18433;SDS011;9344;52.294;13.626;2022-07-29T05:14:35;2.67;;;1.75;;
18433;SDS011;9344;52.294;13.626;2022-07-29T05:17:02;7.05;;;1.80;;
18433;SDS011;9344;52.294;13.626;2022-07-29T05:19:28;3.47;;;1.60;;
18433;SDS011;9344;52.294;13.626;2022-07-29T05:21:56;3.03;;;1.80;;
18433;SDS011;9344;52.294;13.626;2022-07-29T05:24:23;2.38;;;1.50;;
18433;SDS011;9344;52.294;13.626;2022-07-29T05:26:50;3.40;;;1.50;;
18433;SDS011;9344;52.294;13.626;2022-07-29T05:29:16;2.90;;;1.63;;
18433;SDS011;9344;52.294;13.626;2022-07-29T05:31:43;5.05;;;1.77;;
18433;SDS011;9344;52.294;13.626;2022-07-29T05:34:09;2.60;;;1.60;;
18433;SDS011;9344;52.294;13.626;2022-07-29T05:36:36;4.35;;;1.63;;
18433;SDS011;9344;52.294;13.626;2022-07-29T05:39:04;3.33;;;1.52;;
18433;SDS011;9344;52.294;13.626;2022-07-29T05:41:31;4.85;;;1.50;;
18433;SDS011;9344;52.294;13.626;2022-07-29T05:43:58;2.42;;;1.50;;
18433;SDS011;9344;52.294;13.626;2022-07-29T05:46:24;5.43;;;1.80;;
18433;SDS011;9344;52.294;13.626;2022-07-29T05:48:51;3.63;;;1.90;;
18433;SDS011;9344;52.294;13.626;2022-07-29T05:51:18;5.65;;;2.13;;
18433;SDS011;9344;52.294;13.626;2022-07-29T05:53:44;3.83;;;1.88;;
18433;SDS011;9344;52.294;13.626;2022-07-29T05:56:12;3.22;;;1.80;;
18433;SDS011;9344;52.294;13.626;2022-07-29T05:58:38;3.45;;;1.60;;
18433;SDS011;9344;52.294;13.626;2022-07-29T06:01:05;4.28;;;1.63;;
18433;SDS011;9344;52.294;13.626;2022-07-29T06:03:31;4.50;;;1.70;;
18433;SDS011;9344;52.294;13.626;2022-07-29T06:05:59;4.00;;;1.50;;
18433;SDS011;9344;52.294;13.626;2022-07-29T06:08:25;3.40;;;1.30;;
18433;SDS011;9344;52.294;13.626;2022-07-29T06:10:52;3.53;;;1.60;;
18433;SDS011;9344;52.294;13.626;2022-07-29T06:13:20;3.22;;;1.67;;
18433;SDS011;9344;52.294;13.626;2022-07-29T06:15:47;6.78;;;1.60;;
18433;SDS011;9344;52.294;13.626;2022-07-29T06:18:13;3.85;;;1.95;;
18433;SDS011;9344;52.294;13.626;2022-07-29T06:20:40;3.70;;;1.50;;
18433;SDS011;9344;52.294;13.626;2022-07-29T06:23:07;4.93;;;1.60;;
18433;SDS011;9344;52.294;13.626;2022-07-29T06:25:34;3.60;;;1.77;;
18433;SDS011;9344;52.294;13.626;2022-07-29T06:28:01;4.28;;;1.73;;
18433;SDS011;9344;52.294;13.626;2022-07-29T06:30:30;6.60;;;1.75;;
18433;SDS011;9344;52.294;13.626;2022-07-29T06:32:56;1.90;;;1.58;;
18433;SDS011;9344;52.294;13.626;2022-07-29T06:35:23;4.55;;;1.80;;
18433;SDS011;9344;52.294;13.626;2022-07-29T06:37:49;2.97;;;1.70;;
18433;SDS011;9344;52.294;13.626;2022-07-29T06:40:17;2.20;;;1.40;;
18433;SDS011;9344;52.294;13.626;2022-07-29T06:43:12;2.33;;;1.45;;
18433;SDS011;9344;52.294;13.626;2022-07-29T06:45:40;4.32;;;1.60;;
18433;SDS011;9344;52.294;13.626;2022-07-29T06:48:07;2.30;;;1.38;;
18433;SDS011;9344;52.294;13.626;2022-07-29T06:50:34;2.33;;;1.20;;
18433;SDS011;9344;52.294;13.626;2022-07-29T06:53:00;2.33;;;1.45;;
18433;SDS011;9344;52.294;13.626;2022-07-29T06:55:27;1.88;;;1.30;;
18433;SDS011;9344;52.294;13.626;2022-07-29T06:57:53;2.13;;;1.50;;
18433;SDS011;9344;52.294;13.626;2022-07-29T07:00:20;3.15;;;1.40;;
18433;SDS011;9344;52.294;13.626;2022-07-29T07:02:48;3.80;;;1.40;;
18433;SDS011;9344;52.294;13.626;2022-07-29T07:05:14;2.42;;;1.30;;
18433;SDS011;9344;52.294;13.626;2022-07-29T07:07:41;4.45;;;1.40;;
18433;SDS011;9344;52.294;13.626;2022-07-29T07:10:08;2.40;;;1.40;;
18433;SDS011;9344;52.294;13.626;2022-07-29T07:12:34;3.10;;;1.40;;
18433;SDS011;9344;52.294;13.626;2022-07-29T07:15:01;4.60;;;1.40;;
18433;SDS011;9344;52.294;13.626;2022-07-29T07:17:28;2.25;;;1.20;;
18433;SDS011;9344;52.294;13.626;2022-07-29T07:19:56;1.88;;;1.55;;
18433;SDS011;9344;52.294;13.626;2022-07-29T07:22:22;1.88;;;1.20;;
18433;SDS011;9344;52.294;13.626;2022-07-29T07:24:49;4.13;;;1.48;;
18433;SDS011;9344;52.294;13.626;2022-07-29T07:27:15;3.35;;;1.30;;
18433;SDS011;9344;52.294;13.626;2022-07-29T07:29:42;1.95;;;1.25;;
18433;SDS011;9344;52.294;13.626;2022-07-29T07:32:08;1.55;;;1.10;;
18433;SDS011;9344;52.294;13.626;2022-07-29T07:34:35;2.92;;;1.45;;
18433;SDS011;9344;52.294;13.626;2022-07-29T07:37:04;2.53;;;1.23;;
18433;SDS011;9344;52.294;13.626;2022-07-29T07:39:31;3.63;;;1.40;;
18433;SDS011;9344;52.294;13.626;2022-07-29T07:41:57;2.13;;;1.17;;
18433;SDS011;9344;52.294;13.626;2022-07-29T07:44:24;3.35;;;1.30;;
18433;SDS011;9344;52.294;13.626;2022-07-29T07:46:50;1.55;;;1.10;;
18433;SDS011;9344;52.294;13.626;2022-07-29T07:49:17;2.60;;;1.17;;
18433;SDS011;9344;52.294;13.626;2022-07-29T07:51:43;2.00;;;0.93;;
18433;SDS011;9344;52.294;13.626;2022-07-29T07:54:11;1.98;;;1.25;;
18433;SDS011;9344;52.294;13.626;2022-07-29T07:56:38;2.85;;;1.40;;
18433;SDS011;9344;52.294;13.626;2022-07-29T07:59:04;1.48;;;1.00;;
18433;SDS011;9344;52.294;13.626;2022-07-29T08:01:31;2.40;;;1.20;;
18433;SDS011;9344;52.294;13.626;2022-07-29T08:03:57;2.13;;;1.10;;
18433;SDS011;9344;52.294;13.626;2022-07-29T08:06:24;1.48;;;1.00;;
18433;SDS011;9344;52.294;13.626;2022-07-29T08:08:50;1.42;;;1.13;;
18433;SDS011;9344;52.294;13.626;2022-07-29T08:11:18;2.55;;;1.13;;
18433;SDS011;9344;52.294;13.626;2022-07-29T08:13:46;3.92;;;1.23;;
18433;SDS011;9344;52.294;13.626;2022-07-29T08:16:12;3.28;;;1.20;;
18433;SDS011;9344;52.294;13.626;2022-07-29T08:18:40;1.70;;;1.20;;
18433;SDS011;9344;52.294;13.626;2022-07-29T08:21:07;6.20;;;1.30;;
18433;SDS011;9344;52.294;13.626;2022-07-29T08:23:34;2.30;;;1.35;;
18433;SDS011;9344;52.294;13.626;2022-07-29T08:26:03;1.63;;;1.10;;
18433;SDS011;9344;52.294;13.626;2022-07-29T08:28:31;1.63;;;1.10;;
18433;SDS011;9344;52.294;13.626;2022-07-29T08:30:58;1.63;;;1.13;;
18433;SDS011;9344;52.294;13.626;2022-07-29T08:33:24;3.67;;;1.10;;
18433;SDS011;9344;52.294;13.626;2022-07-29T08:35:51;1.40;;;1.02;;
18433;SDS011;9344;52.294;13.626;2022-07-29T08:38:17;1.35;;;0.90;;
18433;SDS011;9344;52.294;13.626;2022-07-29T08:40:44;3.00;;;1.00;;
18433;SDS011;9344;52.294;13.626;2022-07-29T08:43:11;1.40;;;1.17;;
18433;SDS011;9344;52.294;13.626;2022-07-29T08:45:43;1.80;;;1.30;;
18433;SDS011;9344;52.294;13.626;2022-07-29T08:48:11;4.20;;;1.30;;
18433;SDS011;9344;52.294;13.626;2022-07-29T08:50:38;1.70;;;1.10;;
18433;SDS011;9344;52.294;13.626;2022-07-29T08:53:06;3.33;;;1.20;;
18433;SDS011;9344;52.294;13.626;2022-07-29T08:55:36;2.40;;;1.20;;
18433;SDS011;9344;52.294;13.626;2022-07-29T08:58:05;2.78;;;1.30;;
18433;SDS011;9344;52.294;13.626;2022-07-29T09:00:32;2.17;;;1.30;;
18433;SDS011;9344;52.294;13.626;2022-07-29T09:03:01;2.13;;;1.00;;
18433;SDS011;9344;52.294;13.626;2022-07-29T09:05:31;1.88;;;1.30;;
18433;SDS011;9344;52.294;13.626;2022-07-29T09:07:58;2.38;;;1.17;;
18433;SDS011;9344;52.294;13.626;2022-07-29T09:10:25;2.40;;;1.30;;
18433;SDS011;9344;52.294;13.626;2022-07-29T09:12:53;2.13;;;1.52;;
18433;SDS011;9344;52.294;13.626;2022-07-29T09:15:20;2.10;;;1.20;;
18433;SDS011;9344;52.294;13.626;2022-07-29T09:17:48;4.47;;;1.10;;
18433;SDS011;9344;52.294;13.626;2022-07-29T09:20:17;1.63;;;1.15;;
18433;SDS011;9344;52.294;13.626;2022-07-29T09:22:45;3.60;;;1.20;;
18433;SDS011;9344;52.294;13.626;2022-07-29T09:25:13;2.22;;;1.20;;
18433;SDS011;9344;52.294;13.626;2022-07-29T09:27:41;2.72;;;1.52;;
18433;SDS011;9344;52.294;13.626;2022-07-29T09:30:16;3.67;;;1.20;;
18433;SDS011;9344;52.294;13.626;2022-07-29T09:32:55;2.42;;;1.10;;
18433;SDS011;9344;52.294;13.626;2022-07-29T09:35:25;2.83;;;1.10;;
18433;SDS011;9344;52.294;13.626;2022-07-29T09:37:53;3.28;;;1.10;;
18433;SDS011;9344;52.294;13.626;2022-07-29T09:40:20;2.05;;;1.20;;
18433;SDS011;9344;52.294;13.626;2022-07-29T09:42:49;3.03;;;1.00;;
18433;SDS011;9344;52.294;13.626;2022-07-29T09:45:27;1.17;;;1.02;;
18433;SDS011;9344;52.294;13.626;2022-07-29T09:47:55;2.55;;;1.13;;
18433;SDS011;9344;52.294;13.626;2022-07-29T09:50:35;2.25;;;1.10;;
18433;SDS011;9344;52.294;13.626;2022-07-29T09:53:03;2.28;;;1.30;;
18433;SDS011;9344;52.294;13.626;2022-07-29T09:55:29;1.48;;;1.00;;
18433;SDS011;9344;52.294;13.626;2022-07-29T09:57:59;1.67;;;1.23;;
18433;SDS011;9344;52.294;13.626;2022-07-29T10:00:41;2.53;;;1.27;;
18433;SDS011;9344;52.294;13.626;2022-07-29T10:03:09;1.63;;;1.00;;
18433;SDS011;9344;52.294;13.626;2022-07-29T10:05:37;1.50;;;1.13;;
18433;SDS011;9344;52.294;13.626;2022-07-29T10:08:06;2.72;;;1.17;;
18433;SDS011;9344;52.294;13.626;2022-07-29T10:10:34;2.85;;;1.00;;
18433;SDS011;9344;52.294;13.626;2022-07-29T10:13:02;8.23;;;1.20;;
18433;SDS011;9344;52.294;13.626;2022-07-29T10:15:30;2.13;;;1.20;;
18433;SDS011;9344;52.294;13.626;2022-07-29T10:18:01;1.40;;;1.00;;
18433;SDS011;9344;52.294;13.626;2022-07-29T10:20:28;2.25;;;1.38;;
18433;SDS011;9344;52.294;13.626;2022-07-29T10:22:56;2.05;;;1.27;;
18433;SDS011;9344;52.294;13.626;2022-07-29T10:25:23;5.00;;;1.73;;
18433;SDS011;9344;52.294;13.626;2022-07-29T10:27:50;1.90;;;1.30;;
18433;SDS011;9344;52.294;13.626;2022-07-29T10:30:18;1.95;;;1.30;;
18433;SDS011;9344;52.294;13.626;2022-07-29T10:33:02;2.95;;;1.52;;
18433;SDS011;9344;52.294;13.626;2022-07-29T10:35:51;3.35;;;1.52;;
18433;SDS011;9344;52.294;13.626;2022-07-29T10:38:32;2.78;;;1.58;;
18433;SDS011;9344;52.294;13.626;2022-07-29T10:41:16;2.05;;;1.40;;
18433;SDS011;9344;52.294;13.626;2022-07-29T10:43:54;4.22;;;1.52;;
18433;SDS011;9344;52.294;13.626;2022-07-29T10:46:24;2.30;;;1.30;;
18433;SDS011;9344;52.294;13.626;2022-07-29T10:49:04;1.90;;;1.50;;
18433;SDS011;9344;52.294;13.626;2022-07-29T10:54:38;3.88;;;1.58;;
18433;SDS011;9344;52.294;13.626;2022-07-29T10:57:18;3.05;;;1.67;;
18433;SDS011;9344;52.294;13.626;2022-07-29T10:59:47;4.55;;;1.92;;
18433;SDS011;9344;52.294;13.626;2022-07-29T11:05:08;3.97;;;1.80;;
18433;SDS011;9344;52.294;13.626;2022-07-29T11:07:37;2.55;;;1.60;;
18433;SDS011;9344;52.294;13.626;2022-07-29T11:10:22;3.40;;;1.85;;
18433;SDS011;9344;52.294;13.626;2022-07-29T11:12:49;1.98;;;1.40;;
18433;SDS011;9344;52.294;13.626;2022-07-29T11:15:17;3.58;;;1.70;;
18433;SDS011;9344;52.294;13.626;2022-07-29T11:20:41;3.88;;;1.70;;
18433;SDS011;9344;52.294;13.626;2022-07-29T11:23:19;3.30;;;1.73;;
18433;SDS011;9344;52.294;13.626;2022-07-29T11:28:56;2.30;;;1.55;;
18433;SDS011;9344;52.294;13.626;2022-07-29T11:31:36;2.38;;;1.65;;
18433;SDS011;9344;52.294;13.626;2022-07-29T11:34:20;2.47;;;1.88;;
18433;SDS011;9344;52.294;13.626;2022-07-29T11:40:03;3.25;;;1.77;;
18433;SDS011;9344;52.294;13.626;2022-07-29T11:42:46;4.53;;;1.77;;
18433;SDS011;9344;52.294;13.626;2022-07-29T11:45:14;1.92;;;1.58;;
18433;SDS011;9344;52.294;13.626;2022-07-29T11:47:47;4.60;;;1.98;;
18433;SDS011;9344;52.294;13.626;2022-07-29T11:50:16;2.70;;;1.67;;
18433;SDS011;9344;52.294;13.626;2022-07-29T11:52:45;2.95;;;1.55;;
18433;SDS011;9344;52.294;13.626;2022-07-29T11:55:14;2.75;;;1.67;;
18433;SDS011;9344;52.294;13.626;2022-07-29T11:57:49;4.22;;;2.03;;
18433;SDS011;9344;52.294;13.626;2022-07-29T12:00:21;2.95;;;1.80;;
18433;SDS011;9344;52.294;13.626;2022-07-29T12:02:53;2.63;;;1.80;;
18433;SDS011;9344;52.294;13.626;2022-07-29T12:05:21;3.38;;;1.50;;
18433;SDS011;9344;52.294;13.626;2022-07-29T12:07:58;2.70;;;1.90;;
18433;SDS011;9344;52.294;13.626;2022-07-29T12:10:30;3.10;;;1.88;;
18433;SDS011;9344;52.294;13.626;2022-07-29T12:12:59;3.70;;;1.80;;
18433;SDS011;9344;52.294;13.626;2022-07-29T12:15:25;2.65;;;1.80;;
18433;SDS011;9344;52.294;13.626;2022-07-29T12:17:52;2.35;;;1.48;;
18433;SDS011;9344;52.294;13.626;2022-07-29T12:20:22;3.03;;;1.65;;
18433;SDS011;9344;52.294;13.626;2022-07-29T12:22:50;2.28;;;1.48;;
18433;SDS011;9344;52.294;13.626;2022-07-29T12:25:18;2.67;;;1.73;;
18433;SDS011;9344;52.294;13.626;2022-07-29T12:27:45;2.72;;;1.33;;
18433;SDS011;9344;52.294;13.626;2022-07-29T12:30:14;2.30;;;1.50;;
18433;SDS011;9344;52.294;13.626;2022-07-29T12:32:43;4.15;;;1.33;;
18433;SDS011;9344;52.294;13.626;2022-07-29T12:35:12;2.35;;;1.80;;
18433;SDS011;9344;52.294;13.626;2022-07-29T12:37:40;2.88;;;1.50;;
18433;SDS011;9344;52.294;13.626;2022-07-29T12:40:09;2.50;;;1.65;;
18433;SDS011;9344;52.294;13.626;2022-07-29T12:42:37;2.38;;;1.52;;
18433;SDS011;9344;52.294;13.626;2022-07-29T12:45:05;2.38;;;1.25;;
18433;SDS011;9344;52.294;13.626;2022-07-29T12:47:37;3.38;;;1.52;;
18433;SDS011;9344;52.294;13.626;2022-07-29T12:50:17;3.40;;;1.55;;
18433;SDS011;9344;52.294;13.626;2022-07-29T12:52:44;3.30;;;1.60;;
18433;SDS011;9344;52.294;13.626;2022-07-29T12:55:12;2.70;;;1.33;;
18433;SDS011;9344;52.294;13.626;2022-07-29T12:57:44;2.33;;;1.33;;
18433;SDS011;9344;52.294;13.626;2022-07-29T13:00:12;3.53;;;1.60;;
18433;SDS011;9344;52.294;13.626;2022-07-29T13:02:41;2.80;;;1.40;;
18433;SDS011;9344;52.294;13.626;2022-07-29T13:05:09;2.30;;;1.50;;
18433;SDS011;9344;52.294;13.626;2022-07-29T13:07:37;3.35;;;1.45;;
18433;SDS011;9344;52.294;13.626;2022-07-29T13:10:11;2.45;;;1.73;;
18433;SDS011;9344;52.294;13.626;2022-07-29T13:12:39;2.22;;;1.25;;
18433;SDS011;9344;52.294;13.626;2022-07-29T13:15:29;4.22;;;1.60;;
18433;SDS011;9344;52.294;13.626;2022-07-29T13:17:57;3.05;;;1.60;;
18433;SDS011;9344;52.294;13.626;2022-07-29T13:20:25;3.28;;;1.77;;
18433;SDS011;9344;52.294;13.626;2022-07-29T13:22:54;2.05;;;1.58;;
18433;SDS011;9344;52.294;13.626;2022-07-29T13:25:25;1.58;;;1.27;;
18433;SDS011;9344;52.294;13.626;2022-07-29T13:27:53;2.35;;;1.65;;
18433;SDS011;9344;52.294;13.626;2022-07-29T13:30:20;3.25;;;1.60;;
18433;SDS011;9344;52.294;13.626;2022-07-29T13:32:47;1.70;;;1.20;;
18433;SDS011;9344;52.294;13.626;2022-07-29T13:35:15;2.00;;;1.33;;
18433;SDS011;9344;52.294;13.626;2022-07-29T13:37:42;2.15;;;1.52;;
18433;SDS011;9344;52.294;13.626;2022-07-29T13:40:09;3.80;;;1.80;;
18433;SDS011;9344;52.294;13.626;2022-07-29T13:42:37;2.38;;;1.52;;
18433;SDS011;9344;52.294;13.626;2022-07-29T13:45:04;3.13;;;1.60;;
18433;SDS011;9344;52.294;13.626;2022-07-29T13:47:32;3.67;;;1.40;;
18433;SDS011;9344;52.294;13.626;2022-07-29T13:49:58;2.92;;;1.65;;
18433;SDS011;9344;52.294;13.626;2022-07-29T13:52:27;2.67;;;1.70;;
18433;SDS011;9344;52.294;13.626;2022-07-29T13:54:53;3.63;;;1.75;;
18433;SDS011;9344;52.294;13.626;2022-07-29T13:57:20;2.20;;;1.63;;
18433;SDS011;9344;52.294;13.626;2022-07-29T13:59:46;3.85;;;1.60;;
18433;SDS011;9344;52.294;13.626;2022-07-29T14:02:13;2.85;;;1.75;;
18433;SDS011;9344;52.294;13.626;2022-07-29T14:04:39;2.42;;;1.70;;
18433;SDS011;9344;52.294;13.626;2022-07-29T14:07:06;4.47;;;1.40;;
18433;SDS011;9344;52.294;13.626;2022-07-29T14:09:34;2.50;;;1.50;;
18433;SDS011;9344;52.294;13.626;2022-07-29T14:12:01;3.33;;;1.60;;
18433;SDS011;9344;52.294;13.626;2022-07-29T14:14:28;2.63;;;1.75;;
18433;SDS011;9344;52.294;13.626;2022-07-29T14:16:56;4.70;;;1.50;;
18433;SDS011;9344;52.294;13.626;2022-07-29T14:19:23;4.15;;;1.67;;
18433;SDS011;9344;52.294;13.626;2022-07-29T14:21:49;4.80;;;1.48;;
18433;SDS011;9344;52.294;13.626;2022-07-29T14:24:16;3.28;;;1.60;;
18433;SDS011;9344;52.294;13.626;2022-07-29T14:26:44;2.28;;;1.58;;
18433;SDS011;9344;52.294;13.626;2022-07-29T14:29:10;2.90;;;1.50;;
18433;SDS011;9344;52.294;13.626;2022-07-29T14:31:37;2.13;;;1.58;;
18433;SDS011;9344;52.294;13.626;2022-07-29T14:34:03;2.05;;;1.50;;
18433;SDS011;9344;52.294;13.626;2022-07-29T14:36:30;4.13;;;1.55;;
18433;SDS011;9344;52.294;13.626;2022-07-29T14:38:56;2.78;;;1.50;;
18433;SDS011;9344;52.294;13.626;2022-07-29T14:41:23;3.53;;;1.80;;
18433;SDS011;9344;52.294;13.626;2022-07-29T14:43:51;1.83;;;1.40;;
18433;SDS011;9344;52.294;13.626;2022-07-29T14:46:18;4.15;;;1.65;;
18433;SDS011;9344;52.294;13.626;2022-07-29T14:48:44;3.10;;;1.45;;
18433;SDS011;9344;52.294;13.626;2022-07-29T14:51:11;4.80;;;1.85;;
18433;SDS011;9344;52.294;13.626;2022-07-29T14:53:38;2.08;;;1.50;;
18433;SDS011;9344;52.294;13.626;2022-07-29T14:56:04;2.92;;;1.50;;
18433;SDS011;9344;52.294;13.626;2022-07-29T14:58:31;2.97;;;1.48;;
18433;SDS011;9344;52.294;13.626;2022-07-29T15:00:59;2.15;;;1.63;;
18433;SDS011;9344;52.294;13.626;2022-07-29T15:03:25;2.13;;;1.50;;
18433;SDS011;9344;52.294;13.626;2022-07-29T15:05:52;2.97;;;1.73;;
18433;SDS011;9344;52.294;13.626;2022-07-29T15:08:19;2.50;;;1.45;;
18433;SDS011;9344;52.294;13.626;2022-07-29T15:10:46;3.15;;;1.55;;
18433;SDS011;9344;52.294;13.626;2022-07-29T15:13:12;3.95;;;2.00;;
18433;SDS011;9344;52.294;13.626;2022-07-29T15:15:39;4.30;;;1.80;;